sensor_id;sensor_type;location;lat;lon;timestamp;temperature;humidity
11454;DHT22;5783;55.174;61.310;2022-07-23T00:01:49;25.40;56.20
11454;DHT22;5783;55.174;61.310;2022-07-23T00:04:18;25.40;53.20
11454;DHT22;5783;55.174;61.310;2022-07-23T00:06:46;25.40;53.70
11454;DHT22;5783;55.174;61.310;2022-07-23T00:09:15;25.40;54.60
11454;DHT22;5783;55.174;61.310;2022-07-23T00:11:45;25.40;53.30
11454;DHT22;5783;55.174;61.310;2022-07-23T00:14:14;25.40;53.20
11454;DHT22;5783;55.174;61.310;2022-07-23T00:16:42;25.30;53.20
11454;DHT22;5783;55.174;61.310;2022-07-23T00:19:10;25.40;53.20
11454;DHT22;5783;55.174;61.310;2022-07-23T00:21:39;25.40;53.40
11454;DHT22;5783;55.174;61.310;2022-07-23T00:24:08;25.40;53.20
11454;DHT22;5783;55.174;61.310;2022-07-23T00:26:38;25.40;53.20
11454;DHT22;5783;55.174;61.310;2022-07-23T00:29:07;25.40;53.30
11454;DHT22;5783;55.174;61.310;2022-07-23T00:31:36;25.40;53.30
11454;DHT22;5783;55.174;61.310;2022-07-23T00:34:04;25.40;53.30
11454;DHT22;5783;55.174;61.310;2022-07-23T00:36:32;25.40;53.30
11454;DHT22;5783;55.174;61.310;2022-07-23T00:39:02;25.40;53.30
11454;DHT22;5783;55.174;61.310;2022-07-23T00:41:31;25.40;53.30
11454;DHT22;5783;55.174;61.310;2022-07-23T00:49:38;25.40;53.50
11454;DHT22;5783;55.174;61.310;2022-07-23T00:52:06;25.40;53.40
11454;DHT22;5783;55.174;61.310;2022-07-23T00:54:35;25.40;53.40
11454;DHT22;5783;55.174;61.310;2022-07-23T00:57:04;25.50;53.50
11454;DHT22;5783;55.174;61.310;2022-07-23T00:59:33;25.50;53.50
11454;DHT22;5783;55.174;61.310;2022-07-23T01:02:01;25.40;53.40
11454;DHT22;5783;55.174;61.310;2022-07-23T01:04:30;25.50;53.40
11454;DHT22;5783;55.174;61.310;2022-07-23T01:07:00;25.50;53.40
11454;DHT22;5783;55.174;61.310;2022-07-23T01:09:31;25.50;53.30
11454;DHT22;5783;55.174;61.310;2022-07-23T01:12:00;25.50;53.20
11454;DHT22;5783;55.174;61.310;2022-07-23T01:14:29;25.50;53.10
11454;DHT22;5783;55.174;61.310;2022-07-23T01:16:58;25.50;53.10
11454;DHT22;5783;55.174;61.310;2022-07-23T01:19:28;25.50;53.20
11454;DHT22;5783;55.174;61.310;2022-07-23T01:21:56;25.50;53.40
11454;DHT22;5783;55.174;61.310;2022-07-23T01:24:26;25.50;53.40
11454;DHT22;5783;55.174;61.310;2022-07-23T01:26:54;25.40;53.50
11454;DHT22;5783;55.174;61.310;2022-07-23T01:29:22;25.40;53.60
11454;DHT22;5783;55.174;61.310;2022-07-23T01:31:51;25.40;53.60
11454;DHT22;5783;55.174;61.310;2022-07-23T01:34:20;25.40;53.70
11454;DHT22;5783;55.174;61.310;2022-07-23T01:36:49;25.40;53.80
11454;DHT22;5783;55.174;61.310;2022-07-23T01:39:17;25.40;53.80
11454;DHT22;5783;55.174;61.310;2022-07-23T01:41:46;25.40;53.80
11454;DHT22;5783;55.174;61.310;2022-07-23T01:44:15;25.40;53.70
11454;DHT22;5783;55.174;61.310;2022-07-23T01:46:44;25.40;53.70
11454;DHT22;5783;55.174;61.310;2022-07-23T01:49:12;25.40;53.60
11454;DHT22;5783;55.174;61.310;2022-07-23T01:51:41;25.40;53.60
11454;DHT22;5783;55.174;61.310;2022-07-23T01:54:11;25.40;53.60
11454;DHT22;5783;55.174;61.310;2022-07-23T01:56:41;25.40;53.60
11454;DHT22;5783;55.174;61.310;2022-07-23T01:59:09;25.40;53.70
11454;DHT22;5783;55.174;61.310;2022-07-23T02:01:38;25.40;53.70
11454;DHT22;5783;55.174;61.310;2022-07-23T02:04:07;25.40;53.70
11454;DHT22;5783;55.174;61.310;2022-07-23T02:06:36;25.40;53.70
11454;DHT22;5783;55.174;61.310;2022-07-23T02:09:05;25.40;53.70
11454;DHT22;5783;55.174;61.310;2022-07-23T02:11:33;25.40;53.60
11454;DHT22;5783;55.174;61.310;2022-07-23T02:14:02;25.40;53.80
11454;DHT22;5783;55.174;61.310;2022-07-23T02:16:31;25.40;53.70
11454;DHT22;5783;55.174;61.310;2022-07-23T02:19:00;25.40;53.80
11454;DHT22;5783;55.174;61.310;2022-07-23T02:21:29;25.40;53.80
11454;DHT22;5783;55.174;61.310;2022-07-23T02:23:58;25.40;53.90
11454;DHT22;5783;55.174;61.310;2022-07-23T02:26:28;25.40;53.90
11454;DHT22;5783;55.174;61.310;2022-07-23T02:28:59;25.40;53.80
11454;DHT22;5783;55.174;61.310;2022-07-23T02:31:28;25.50;53.90
11454;DHT22;5783;55.174;61.310;2022-07-23T02:33:57;25.50;53.80
11454;DHT22;5783;55.174;61.310;2022-07-23T02:36:26;25.50;53.80
11454;DHT22;5783;55.174;61.310;2022-07-23T02:38:56;25.50;53.80
11454;DHT22;5783;55.174;61.310;2022-07-23T02:41:24;25.50;53.80
11454;DHT22;5783;55.174;61.310;2022-07-23T02:43:52;25.50;53.30
11454;DHT22;5783;55.174;61.310;2022-07-23T02:46:21;25.50;53.80
11454;DHT22;5783;55.174;61.310;2022-07-23T02:48:50;25.50;53.90
11454;DHT22;5783;55.174;61.310;2022-07-23T02:51:20;25.50;53.90
11454;DHT22;5783;55.174;61.310;2022-07-23T02:53:49;25.50;53.90
11454;DHT22;5783;55.174;61.310;2022-07-23T02:56:18;25.60;54.00
11454;DHT22;5783;55.174;61.310;2022-07-23T02:58:47;25.60;54.00
11454;DHT22;5783;55.174;61.310;2022-07-23T03:01:15;25.60;54.00
11454;DHT22;5783;55.174;61.310;2022-07-23T03:03:44;25.60;54.00
11454;DHT22;5783;55.174;61.310;2022-07-23T03:06:13;25.60;54.00
11454;DHT22;5783;55.174;61.310;2022-07-23T03:08:43;25.60;54.00
11454;DHT22;5783;55.174;61.310;2022-07-23T03:11:12;25.60;54.10
11454;DHT22;5783;55.174;61.310;2022-07-23T03:13:41;25.70;54.00
11454;DHT22;5783;55.174;61.310;2022-07-23T03:16:10;25.70;54.00
11454;DHT22;5783;55.174;61.310;2022-07-23T03:18:39;25.70;54.10
11454;DHT22;5783;55.174;61.310;2022-07-23T03:21:07;25.70;54.00
11454;DHT22;5783;55.174;61.310;2022-07-23T03:23:36;25.70;54.00
11454;DHT22;5783;55.174;61.310;2022-07-23T03:26:06;25.70;54.20
11454;DHT22;5783;55.174;61.310;2022-07-23T03:28:35;25.70;54.20
11454;DHT22;5783;55.174;61.310;2022-07-23T03:31:04;25.70;54.30
11454;DHT22;5783;55.174;61.310;2022-07-23T03:33:32;25.70;54.30
11454;DHT22;5783;55.174;61.310;2022-07-23T03:36:01;25.70;54.30
11454;DHT22;5783;55.174;61.310;2022-07-23T03:38:30;25.70;54.20
11454;DHT22;5783;55.174;61.310;2022-07-23T03:40:59;25.80;54.40
11454;DHT22;5783;55.174;61.310;2022-07-23T03:43:29;25.80;54.30
11454;DHT22;5783;55.174;61.310;2022-07-23T03:45:58;25.80;54.30
11454;DHT22;5783;55.174;61.310;2022-07-23T03:48:27;25.80;54.30
11454;DHT22;5783;55.174;61.310;2022-07-23T03:50:56;25.80;54.30
11454;DHT22;5783;55.174;61.310;2022-07-23T03:53:25;25.70;54.40
11454;DHT22;5783;55.174;61.310;2022-07-23T03:55:53;25.70;54.50
11454;DHT22;5783;55.174;61.310;2022-07-23T03:58:22;25.70;54.50
11454;DHT22;5783;55.174;61.310;2022-07-23T04:00:52;25.70;54.40
11454;DHT22;5783;55.174;61.310;2022-07-23T04:03:20;25.70;54.40
11454;DHT22;5783;55.174;61.310;2022-07-23T04:05:49;25.70;54.60
11454;DHT22;5783;55.174;61.310;2022-07-23T04:08:18;25.70;54.60
11454;DHT22;5783;55.174;61.310;2022-07-23T04:10:48;25.60;54.70
11454;DHT22;5783;55.174;61.310;2022-07-23T04:13:17;25.60;54.70
11454;DHT22;5783;55.174;61.310;2022-07-23T04:15:46;25.60;54.70
11454;DHT22;5783;55.174;61.310;2022-07-23T04:18:16;25.60;54.50
11454;DHT22;5783;55.174;61.310;2022-07-23T04:20:45;25.60;54.50
11454;DHT22;5783;55.174;61.310;2022-07-23T04:23:14;25.60;54.30
11454;DHT22;5783;55.174;61.310;2022-07-23T04:25:43;25.70;54.30
11454;DHT22;5783;55.174;61.310;2022-07-23T04:28:12;25.70;54.40
11454;DHT22;5783;55.174;61.310;2022-07-23T04:30:41;25.70;54.40
11454;DHT22;5783;55.174;61.310;2022-07-23T04:33:11;25.70;54.50
11454;DHT22;5783;55.174;61.310;2022-07-23T04:35:40;25.70;54.60
11454;DHT22;5783;55.174;61.310;2022-07-23T04:38:09;25.70;54.60
11454;DHT22;5783;55.174;61.310;2022-07-23T04:40:38;25.70;54.80
11454;DHT22;5783;55.174;61.310;2022-07-23T04:43:07;25.70;54.90
11454;DHT22;5783;55.174;61.310;2022-07-23T04:45:36;25.70;55.00
11454;DHT22;5783;55.174;61.310;2022-07-23T04:48:05;25.70;55.00
11454;DHT22;5783;55.174;61.310;2022-07-23T04:50:35;25.70;55.00
11454;DHT22;5783;55.174;61.310;2022-07-23T04:53:05;25.70;55.00
11454;DHT22;5783;55.174;61.310;2022-07-23T04:55:34;25.70;54.60
11454;DHT22;5783;55.174;61.310;2022-07-23T04:58:03;25.70;54.40
11454;DHT22;5783;55.174;61.310;2022-07-23T05:00:33;25.70;54.60
11454;DHT22;5783;55.174;61.310;2022-07-23T05:03:02;25.70;54.90
11454;DHT22;5783;55.174;61.310;2022-07-23T05:05:30;25.80;55.10
11454;DHT22;5783;55.174;61.310;2022-07-23T05:07:58;25.80;54.90
11454;DHT22;5783;55.174;61.310;2022-07-23T05:10:27;25.90;54.60
11454;DHT22;5783;55.174;61.310;2022-07-23T05:12:57;25.90;54.50
11454;DHT22;5783;55.174;61.310;2022-07-23T05:15:26;26.00;54.30
11454;DHT22;5783;55.174;61.310;2022-07-23T05:17:57;26.00;54.20
11454;DHT22;5783;55.174;61.310;2022-07-23T05:20:25;26.10;53.80
11454;DHT22;5783;55.174;61.310;2022-07-23T05:22:53;26.10;53.70
11454;DHT22;5783;55.174;61.310;2022-07-23T05:25:21;26.10;53.30
11454;DHT22;5783;55.174;61.310;2022-07-23T05:27:50;26.10;53.50
11454;DHT22;5783;55.174;61.310;2022-07-23T05:30:18;26.10;53.70
11454;DHT22;5783;55.174;61.310;2022-07-23T05:32:47;26.20;53.50
11454;DHT22;5783;55.174;61.310;2022-07-23T05:35:15;26.10;53.20
11454;DHT22;5783;55.174;61.310;2022-07-23T05:37:44;26.20;53.20
11454;DHT22;5783;55.174;61.310;2022-07-23T05:40:12;26.20;53.10
11454;DHT22;5783;55.174;61.310;2022-07-23T05:42:41;26.20;53.10
11454;DHT22;5783;55.174;61.310;2022-07-23T05:45:10;26.20;53.00
11454;DHT22;5783;55.174;61.310;2022-07-23T05:47:58;26.20;52.90
11454;DHT22;5783;55.174;61.310;2022-07-23T05:50:27;26.20;53.00
11454;DHT22;5783;55.174;61.310;2022-07-23T05:52:56;26.20;52.90
11454;DHT22;5783;55.174;61.310;2022-07-23T05:55:25;26.20;52.80
11454;DHT22;5783;55.174;61.310;2022-07-23T05:57:57;26.20;52.80
11454;DHT22;5783;55.174;61.310;2022-07-23T06:00:27;26.20;52.80
11454;DHT22;5783;55.174;61.310;2022-07-23T06:02:57;26.20;52.80
11454;DHT22;5783;55.174;61.310;2022-07-23T06:05:26;26.20;52.60
11454;DHT22;5783;55.174;61.310;2022-07-23T06:07:55;26.20;52.60
11454;DHT22;5783;55.174;61.310;2022-07-23T06:10:24;26.20;52.60
11454;DHT22;5783;55.174;61.310;2022-07-23T06:12:54;26.20;52.60
11454;DHT22;5783;55.174;61.310;2022-07-23T06:15:23;26.20;52.40
11454;DHT22;5783;55.174;61.310;2022-07-23T06:17:52;26.20;52.30
11454;DHT22;5783;55.174;61.310;2022-07-23T06:20:23;26.20;52.50
11454;DHT22;5783;55.174;61.310;2022-07-23T06:22:52;26.20;52.30
11454;DHT22;5783;55.174;61.310;2022-07-23T06:25:22;26.30;52.40
11454;DHT22;5783;55.174;61.310;2022-07-23T06:27:51;26.30;52.40
11454;DHT22;5783;55.174;61.310;2022-07-23T06:30:19;26.30;52.90
11454;DHT22;5783;55.174;61.310;2022-07-23T06:32:48;26.30;52.50
11454;DHT22;5783;55.174;61.310;2022-07-23T06:35:16;26.30;52.50
11454;DHT22;5783;55.174;61.310;2022-07-23T06:37:44;26.30;52.50
11454;DHT22;5783;55.174;61.310;2022-07-23T06:40:13;26.30;52.40
11454;DHT22;5783;55.174;61.310;2022-07-23T06:42:41;26.30;51.90
11454;DHT22;5783;55.174;61.310;2022-07-23T06:45:11;26.30;51.40
11454;DHT22;5783;55.174;61.310;2022-07-23T06:47:39;26.30;51.90
11454;DHT22;5783;55.174;61.310;2022-07-23T06:50:08;26.30;51.50
11454;DHT22;5783;55.174;61.310;2022-07-23T06:52:37;26.30;51.70
11454;DHT22;5783;55.174;61.310;2022-07-23T06:55:05;26.30;51.50
11454;DHT22;5783;55.174;61.310;2022-07-23T06:57:34;26.30;52.00
11454;DHT22;5783;55.174;61.310;2022-07-23T07:00:04;26.40;51.90
11454;DHT22;5783;55.174;61.310;2022-07-23T07:02:33;26.40;51.60
11454;DHT22;5783;55.174;61.310;2022-07-23T07:05:04;26.40;51.30
11454;DHT22;5783;55.174;61.310;2022-07-23T07:07:34;26.40;51.60
11454;DHT22;5783;55.174;61.310;2022-07-23T07:10:05;26.40;51.50
11454;DHT22;5783;55.174;61.310;2022-07-23T07:12:33;26.40;51.50
11454;DHT22;5783;55.174;61.310;2022-07-23T07:15:01;26.50;51.90
11454;DHT22;5783;55.174;61.310;2022-07-23T07:17:31;26.50;53.10
11454;DHT22;5783;55.174;61.310;2022-07-23T07:20:00;26.50;51.30
11454;DHT22;5783;55.174;61.310;2022-07-23T07:22:30;26.50;51.00
11454;DHT22;5783;55.174;61.310;2022-07-23T07:24:59;26.50;51.30
11454;DHT22;5783;55.174;61.310;2022-07-23T07:27:30;26.60;51.20
11454;DHT22;5783;55.174;61.310;2022-07-23T07:29:58;26.60;51.30
11454;DHT22;5783;55.174;61.310;2022-07-23T07:32:26;26.60;54.20
11454;DHT22;5783;55.174;61.310;2022-07-23T07:34:55;26.60;52.60
11454;DHT22;5783;55.174;61.310;2022-07-23T07:37:23;26.60;50.60
11454;DHT22;5783;55.174;61.310;2022-07-23T07:39:52;26.60;50.80
11454;DHT22;5783;55.174;61.310;2022-07-23T07:42:20;26.70;50.90
11454;DHT22;5783;55.174;61.310;2022-07-23T07:44:48;26.70;50.70
11454;DHT22;5783;55.174;61.310;2022-07-23T07:47:16;26.70;50.70
11454;DHT22;5783;55.174;61.310;2022-07-23T07:49:45;26.70;50.40
11454;DHT22;5783;55.174;61.310;2022-07-23T07:52:13;26.70;50.30
11454;DHT22;5783;55.174;61.310;2022-07-23T07:54:42;26.70;50.20
11454;DHT22;5783;55.174;61.310;2022-07-23T07:57:10;26.70;50.20
11454;DHT22;5783;55.174;61.310;2022-07-23T07:59:40;26.70;50.20
11454;DHT22;5783;55.174;61.310;2022-07-23T08:02:08;26.80;49.90
11454;DHT22;5783;55.174;61.310;2022-07-23T08:04:36;26.80;49.40
11454;DHT22;5783;55.174;61.310;2022-07-23T08:07:07;26.80;49.40
11454;DHT22;5783;55.174;61.310;2022-07-23T08:09:35;26.80;48.70
11454;DHT22;5783;55.174;61.310;2022-07-23T08:12:03;26.80;48.90
11454;DHT22;5783;55.174;61.310;2022-07-23T08:14:31;26.80;49.00
11454;DHT22;5783;55.174;61.310;2022-07-23T08:17:00;26.80;49.10
11454;DHT22;5783;55.174;61.310;2022-07-23T08:19:28;26.90;49.20
11454;DHT22;5783;55.174;61.310;2022-07-23T08:21:56;26.90;49.30
11454;DHT22;5783;55.174;61.310;2022-07-23T08:24:24;26.90;49.00
11454;DHT22;5783;55.174;61.310;2022-07-23T08:26:53;26.90;49.00
11454;DHT22;5783;55.174;61.310;2022-07-23T08:29:25;26.90;48.80
11454;DHT22;5783;55.174;61.310;2022-07-23T08:31:54;26.90;48.70
11454;DHT22;5783;55.174;61.310;2022-07-23T08:34:22;26.90;48.30
11454;DHT22;5783;55.174;61.310;2022-07-23T08:36:50;26.90;48.60
11454;DHT22;5783;55.174;61.310;2022-07-23T08:39:18;26.90;48.40
11454;DHT22;5783;55.174;61.310;2022-07-23T08:41:47;26.90;48.30
11454;DHT22;5783;55.174;61.310;2022-07-23T08:44:45;27.00;48.40
11454;DHT22;5783;55.174;61.310;2022-07-23T08:46:47;27.00;48.40
11454;DHT22;5783;55.174;61.310;2022-07-23T08:49:16;27.00;48.40
11454;DHT22;5783;55.174;61.310;2022-07-23T08:51:44;27.00;48.60
11454;DHT22;5783;55.174;61.310;2022-07-23T08:54:12;27.00;48.50
11454;DHT22;5783;55.174;61.310;2022-07-23T08:56:40;27.10;48.70
11454;DHT22;5783;55.174;61.310;2022-07-23T08:59:09;27.00;48.60
11454;DHT22;5783;55.174;61.310;2022-07-23T09:01:39;27.10;49.00
11454;DHT22;5783;55.174;61.310;2022-07-23T09:04:07;27.10;48.80
11454;DHT22;5783;55.174;61.310;2022-07-23T09:06:38;27.20;48.70
11454;DHT22;5783;55.174;61.310;2022-07-23T09:17:36;27.10;48.50
11454;DHT22;5783;55.174;61.310;2022-07-23T09:22:48;27.10;49.90
11454;DHT22;5783;55.174;61.310;2022-07-23T09:25:18;27.10;49.90
11454;DHT22;5783;55.174;61.310;2022-07-23T09:30:34;27.20;48.80
11454;DHT22;5783;55.174;61.310;2022-07-23T09:38:22;27.20;49.10
11454;DHT22;5783;55.174;61.310;2022-07-23T09:43:39;27.30;48.60
11454;DHT22;5783;55.174;61.310;2022-07-23T09:48:55;27.30;48.30
11454;DHT22;5783;55.174;61.310;2022-07-23T09:51:24;27.30;48.60
11454;DHT22;5783;55.174;61.310;2022-07-23T09:57:37;27.40;48.60
11454;DHT22;5783;55.174;61.310;2022-07-23T09:59:33;27.40;46.90
11454;DHT22;5783;55.174;61.310;2022-07-23T10:02:01;27.40;46.30
11454;DHT22;5783;55.174;61.310;2022-07-23T10:04:31;27.40;46.50
11454;DHT22;5783;55.174;61.310;2022-07-23T10:07:01;27.40;46.00
11454;DHT22;5783;55.174;61.310;2022-07-23T10:12:19;27.50;46.50
11454;DHT22;5783;55.174;61.310;2022-07-23T10:15:07;27.50;46.00
11454;DHT22;5783;55.174;61.310;2022-07-23T10:17:35;27.50;47.60
11454;DHT22;5783;55.174;61.310;2022-07-23T10:20:04;27.50;45.60
11454;DHT22;5783;55.174;61.310;2022-07-23T10:42:09;27.60;46.00
11454;DHT22;5783;55.174;61.310;2022-07-23T10:44:39;27.60;46.40
11454;DHT22;5783;55.174;61.310;2022-07-23T10:47:09;27.70;46.10
11454;DHT22;5783;55.174;61.310;2022-07-23T10:58:05;27.90;45.10
11454;DHT22;5783;55.174;61.310;2022-07-23T11:00:34;28.00;44.80
11454;DHT22;5783;55.174;61.310;2022-07-23T11:03:03;28.00;44.60
11454;DHT22;5783;55.174;61.310;2022-07-23T11:05:51;28.00;44.50
11454;DHT22;5783;55.174;61.310;2022-07-23T11:08:20;28.00;43.80
11454;DHT22;5783;55.174;61.310;2022-07-23T11:18:55;28.10;43.30
11454;DHT22;5783;55.174;61.310;2022-07-23T11:26:59;28.20;43.60
11454;DHT22;5783;55.174;61.310;2022-07-23T11:28:53;28.20;44.30
11454;DHT22;5783;55.174;61.310;2022-07-23T11:31:21;28.30;43.90
11454;DHT22;5783;55.174;61.310;2022-07-23T11:34:21;28.30;43.70
11454;DHT22;5783;55.174;61.310;2022-07-23T11:36:19;28.30;43.70
11454;DHT22;5783;55.174;61.310;2022-07-23T11:38:47;28.40;44.20
11454;DHT22;5783;55.174;61.310;2022-07-23T11:41:18;28.30;45.80
11454;DHT22;5783;55.174;61.310;2022-07-23T11:43:46;28.40;44.10
11454;DHT22;5783;55.174;61.310;2022-07-23T11:46:14;28.40;43.50
11454;DHT22;5783;55.174;61.310;2022-07-23T11:48:43;28.50;44.00
11454;DHT22;5783;55.174;61.310;2022-07-23T11:51:11;28.50;44.40
11454;DHT22;5783;55.174;61.310;2022-07-23T11:53:41;28.40;44.20
11454;DHT22;5783;55.174;61.310;2022-07-23T11:56:12;28.40;44.20
11454;DHT22;5783;55.174;61.310;2022-07-23T11:58:41;28.40;43.40
11454;DHT22;5783;55.174;61.310;2022-07-23T12:01:10;28.40;43.70
11454;DHT22;5783;55.174;61.310;2022-07-23T12:03:48;28.40;44.00
11454;DHT22;5783;55.174;61.310;2022-07-23T12:06:08;28.30;43.40
11454;DHT22;5783;55.174;61.310;2022-07-23T12:08:40;28.30;43.50
11454;DHT22;5783;55.174;61.310;2022-07-23T12:11:06;28.30;43.90
11454;DHT22;5783;55.174;61.310;2022-07-23T12:13:34;28.30;43.50
11454;DHT22;5783;55.174;61.310;2022-07-23T12:16:03;28.30;43.80
11454;DHT22;5783;55.174;61.310;2022-07-23T12:18:31;28.30;43.70
11454;DHT22;5783;55.174;61.310;2022-07-23T12:21:02;28.20;43.40
11454;DHT22;5783;55.174;61.310;2022-07-23T12:23:29;28.20;43.30
11454;DHT22;5783;55.174;61.310;2022-07-23T12:26:00;28.20;43.60
11454;DHT22;5783;55.174;61.310;2022-07-23T12:28:27;28.10;42.70
11454;DHT22;5783;55.174;61.310;2022-07-23T12:30:56;28.10;43.30
11454;DHT22;5783;55.174;61.310;2022-07-23T12:33:58;28.10;43.40
11454;DHT22;5783;55.174;61.310;2022-07-23T12:35:56;28.10;42.90
11454;DHT22;5783;55.174;61.310;2022-07-23T12:38:25;28.10;42.70
11454;DHT22;5783;55.174;61.310;2022-07-23T12:40:55;28.00;42.50
11454;DHT22;5783;55.174;61.310;2022-07-23T12:43:24;28.00;43.10
11454;DHT22;5783;55.174;61.310;2022-07-23T12:51:29;28.00;42.70
11454;DHT22;5783;55.174;61.310;2022-07-23T12:53:59;28.00;42.30
11454;DHT22;5783;55.174;61.310;2022-07-23T12:59:15;27.90;43.50
11454;DHT22;5783;55.174;61.310;2022-07-23T13:01:44;27.90;43.20
11454;DHT22;5783;55.174;61.310;2022-07-23T13:04:17;27.90;43.00
11454;DHT22;5783;55.174;61.310;2022-07-23T13:07:04;27.90;43.00
11454;DHT22;5783;55.174;61.310;2022-07-23T13:09:32;28.00;43.20
11454;DHT22;5783;55.174;61.310;2022-07-23T13:12:01;28.00;43.60
11454;DHT22;5783;55.174;61.310;2022-07-23T13:14:30;28.00;43.60
11454;DHT22;5783;55.174;61.310;2022-07-23T13:16:58;28.00;43.60
11454;DHT22;5783;55.174;61.310;2022-07-23T13:19:26;28.00;43.10
11454;DHT22;5783;55.174;61.310;2022-07-23T13:21:54;28.00;43.00
11454;DHT22;5783;55.174;61.310;2022-07-23T13:24:23;28.00;42.90
11454;DHT22;5783;55.174;61.310;2022-07-23T13:26:51;28.00;42.50
11454;DHT22;5783;55.174;61.310;2022-07-23T13:29:19;28.00;42.50
11454;DHT22;5783;55.174;61.310;2022-07-23T13:31:47;28.00;42.80
11454;DHT22;5783;55.174;61.310;2022-07-23T13:34:15;28.00;43.30
11454;DHT22;5783;55.174;61.310;2022-07-23T13:36:44;28.00;43.20
11454;DHT22;5783;55.174;61.310;2022-07-23T13:39:13;28.00;43.10
11454;DHT22;5783;55.174;61.310;2022-07-23T13:41:41;28.00;42.50
11454;DHT22;5783;55.174;61.310;2022-07-23T13:44:09;28.00;42.60
11454;DHT22;5783;55.174;61.310;2022-07-23T13:46:37;28.00;42.90
11454;DHT22;5783;55.174;61.310;2022-07-23T13:49:06;28.00;42.40
11454;DHT22;5783;55.174;61.310;2022-07-23T13:51:34;28.10;42.40
11454;DHT22;5783;55.174;61.310;2022-07-23T13:54:02;28.00;42.20
11454;DHT22;5783;55.174;61.310;2022-07-23T13:56:30;28.00;42.40
11454;DHT22;5783;55.174;61.310;2022-07-23T13:58:59;28.00;42.40
11454;DHT22;5783;55.174;61.310;2022-07-23T14:01:27;28.10;42.40
11454;DHT22;5783;55.174;61.310;2022-07-23T14:03:55;28.00;42.30
11454;DHT22;5783;55.174;61.310;2022-07-23T14:06:23;28.10;42.20
11454;DHT22;5783;55.174;61.310;2022-07-23T14:08:52;28.00;42.30
11454;DHT22;5783;55.174;61.310;2022-07-23T14:11:20;28.00;42.50
11454;DHT22;5783;55.174;61.310;2022-07-23T14:13:48;28.00;42.60
11454;DHT22;5783;55.174;61.310;2022-07-23T14:16:16;28.00;42.80
11454;DHT22;5783;55.174;61.310;2022-07-23T14:18:44;28.10;42.30
11454;DHT22;5783;55.174;61.310;2022-07-23T14:21:13;28.00;42.20
11454;DHT22;5783;55.174;61.310;2022-07-23T14:23:41;28.00;42.30
11454;DHT22;5783;55.174;61.310;2022-07-23T14:26:09;28.00;42.40
11454;DHT22;5783;55.174;61.310;2022-07-23T14:28:37;28.00;42.70
11454;DHT22;5783;55.174;61.310;2022-07-23T14:31:05;28.00;43.10
11454;DHT22;5783;55.174;61.310;2022-07-23T14:33:34;28.00;43.30
11454;DHT22;5783;55.174;61.310;2022-07-23T14:36:02;28.00;43.40
11454;DHT22;5783;55.174;61.310;2022-07-23T14:38:30;27.90;43.40
11454;DHT22;5783;55.174;61.310;2022-07-23T14:40:59;27.90;43.50
11454;DHT22;5783;55.174;61.310;2022-07-23T14:43:27;27.90;43.80
11454;DHT22;5783;55.174;61.310;2022-07-23T14:45:55;27.90;43.80
11454;DHT22;5783;55.174;61.310;2022-07-23T14:48:23;27.80;43.80
11454;DHT22;5783;55.174;61.310;2022-07-23T14:50:51;27.80;43.60
11454;DHT22;5783;55.174;61.310;2022-07-23T14:53:20;27.80;43.90
11454;DHT22;5783;55.174;61.310;2022-07-23T14:55:48;27.80;47.70
11454;DHT22;5783;55.174;61.310;2022-07-23T14:58:16;27.80;44.20
11454;DHT22;5783;55.174;61.310;2022-07-23T15:03:12;27.70;42.90
11454;DHT22;5783;55.174;61.310;2022-07-23T15:05:40;27.70;43.80
11454;DHT22;5783;55.174;61.310;2022-07-23T15:08:09;27.70;43.80
11454;DHT22;5783;55.174;61.310;2022-07-23T15:10:37;27.60;44.10
11454;DHT22;5783;55.174;61.310;2022-07-23T15:13:05;27.60;43.70
11454;DHT22;5783;55.174;61.310;2022-07-23T15:15:33;27.60;43.60
11454;DHT22;5783;55.174;61.310;2022-07-23T15:18:02;27.60;43.70
11454;DHT22;5783;55.174;61.310;2022-07-23T15:20:30;27.50;43.70
11454;DHT22;5783;55.174;61.310;2022-07-23T15:22:58;27.50;43.90
11454;DHT22;5783;55.174;61.310;2022-07-23T15:25:27;27.50;44.00
11454;DHT22;5783;55.174;61.310;2022-07-23T15:27:56;27.50;43.80
11454;DHT22;5783;55.174;61.310;2022-07-23T15:30:25;27.50;43.30
11454;DHT22;5783;55.174;61.310;2022-07-23T15:32:53;27.50;44.00
11454;DHT22;5783;55.174;61.310;2022-07-23T15:35:23;27.50;44.30
11454;DHT22;5783;55.174;61.310;2022-07-23T15:37:51;27.50;44.10
11454;DHT22;5783;55.174;61.310;2022-07-23T15:40:20;27.50;44.10
11454;DHT22;5783;55.174;61.310;2022-07-23T15:42:48;27.40;44.20
11454;DHT22;5783;55.174;61.310;2022-07-23T15:45:16;27.40;44.30
11454;DHT22;5783;55.174;61.310;2022-07-23T15:47:44;27.40;44.40
11454;DHT22;5783;55.174;61.310;2022-07-23T15:50:14;27.40;44.30
11454;DHT22;5783;55.174;61.310;2022-07-23T15:52:45;27.40;44.30
11454;DHT22;5783;55.174;61.310;2022-07-23T15:55:13;27.40;44.40
11454;DHT22;5783;55.174;61.310;2022-07-23T15:57:41;27.30;44.50
11454;DHT22;5783;55.174;61.310;2022-07-23T16:00:10;27.30;44.80
11454;DHT22;5783;55.174;61.310;2022-07-23T16:02:38;27.30;44.70
11454;DHT22;5783;55.174;61.310;2022-07-23T16:05:06;27.30;44.90
11454;DHT22;5783;55.174;61.310;2022-07-23T16:07:54;27.20;45.00
11454;DHT22;5783;55.174;61.310;2022-07-23T16:10:22;27.20;45.00
11454;DHT22;5783;55.174;61.310;2022-07-23T16:12:51;27.20;45.10
11454;DHT22;5783;55.174;61.310;2022-07-23T16:15:19;27.20;45.30
11454;DHT22;5783;55.174;61.310;2022-07-23T16:17:47;27.20;45.50
11454;DHT22;5783;55.174;61.310;2022-07-23T16:20:16;27.20;45.70
11454;DHT22;5783;55.174;61.310;2022-07-23T16:22:44;27.10;45.70
11454;DHT22;5783;55.174;61.310;2022-07-23T16:25:13;27.10;46.00
11454;DHT22;5783;55.174;61.310;2022-07-23T16:27:41;27.10;46.10
11454;DHT22;5783;55.174;61.310;2022-07-23T16:30:10;27.10;46.20
11454;DHT22;5783;55.174;61.310;2022-07-23T16:32:39;27.10;46.40
11454;DHT22;5783;55.174;61.310;2022-07-23T16:35:07;27.10;46.60
11454;DHT22;5783;55.174;61.310;2022-07-23T16:37:36;27.10;46.70
11454;DHT22;5783;55.174;61.310;2022-07-23T16:40:05;27.10;46.80
11454;DHT22;5783;55.174;61.310;2022-07-23T16:42:34;27.10;46.90
11454;DHT22;5783;55.174;61.310;2022-07-23T16:45:03;27.10;47.00
11454;DHT22;5783;55.174;61.310;2022-07-23T16:47:31;27.10;47.10
11454;DHT22;5783;55.174;61.310;2022-07-23T16:50:00;27.10;47.20
11454;DHT22;5783;55.174;61.310;2022-07-23T16:52:28;27.10;47.20
11454;DHT22;5783;55.174;61.310;2022-07-23T16:54:57;27.10;47.30
11454;DHT22;5783;55.174;61.310;2022-07-23T16:57:27;27.10;47.50
11454;DHT22;5783;55.174;61.310;2022-07-23T16:59:55;27.10;47.40
11454;DHT22;5783;55.174;61.310;2022-07-23T17:02:23;27.10;47.50
11454;DHT22;5783;55.174;61.310;2022-07-23T17:04:51;27.10;47.50
11454;DHT22;5783;55.174;61.310;2022-07-23T17:07:20;27.10;47.50
11454;DHT22;5783;55.174;61.310;2022-07-23T17:09:48;27.10;47.70